Terminal Aerodrome Forecast
Issued by NWS Sioux Falls, SD

Home | Current Version | Previous Version | Graphics & Text | Print | Product List | Glossary On
Versions: 1 2 3 4 5 6 7 8 9 10 11 12 13 14 15 16 17 18 19 20 21 22 23 24 25 26 27 28
426
FTUS43 KFSD 291740
TAFSUX
TAF
KSUX 291740Z 2918/3018 04005KT P6SM SCT035
     FM292000 07006KT P6SM FEW045
     FM292300 08006KT P6SM SKC
     FM301100 VRB03KT 3SM BR FEW003
     FM301400 VRB03KT 6SM BR FEW050
     FM301500 VRB03KT P6SM SCT025=

USA.gov is the U.S. government's official web portal to all federal, state and local government web resources and services.